sensor_id;sensor_type;location;lat;lon;timestamp;P1;durP1;ratioP1;P2;durP2;ratioP2
35074;SDS011;21260;34.984;32.490;2023-07-08T00:01:17;8.60;;;4.20;;
35074;SDS011;21260;34.984;32.490;2023-07-08T00:03:45;6.85;;;3.83;;
35074;SDS011;21260;34.984;32.490;2023-07-08T00:06:26;6.20;;;4.30;;
35074;SDS011;21260;34.984;32.490;2023-07-08T00:08:53;8.77;;;4.20;;
35074;SDS011;21260;34.984;32.490;2023-07-08T00:11:20;6.63;;;4.18;;
35074;SDS011;21260;34.984;32.490;2023-07-08T00:13:48;6.85;;;4.00;;
35074;SDS011;21260;34.984;32.490;2023-07-08T00:16:15;7.40;;;4.45;;
35074;SDS011;21260;34.984;32.490;2023-07-08T00:18:43;5.37;;;3.90;;
35074;SDS011;21260;34.984;32.490;2023-07-08T00:21:13;7.47;;;4.43;;
35074;SDS011;21260;34.984;32.490;2023-07-08T00:23:49;7.95;;;4.30;;
35074;SDS011;21260;34.984;32.490;2023-07-08T00:26:23;6.07;;;4.05;;
35074;SDS011;21260;34.984;32.490;2023-07-08T00:28:53;6.18;;;3.95;;
35074;SDS011;21260;34.984;32.490;2023-07-08T00:31:21;6.45;;;3.90;;
35074;SDS011;21260;34.984;32.490;2023-07-08T00:33:51;7.18;;;4.00;;
35074;SDS011;21260;34.984;32.490;2023-07-08T00:36:21;5.28;;;3.63;;
35074;SDS011;21260;34.984;32.490;2023-07-08T00:38:50;4.85;;;3.53;;
35074;SDS011;21260;34.984;32.490;2023-07-08T00:43:55;5.75;;;3.60;;
35074;SDS011;21260;34.984;32.490;2023-07-08T00:49:19;6.00;;;3.55;;
35074;SDS011;21260;34.984;32.490;2023-07-08T00:52:18;4.75;;;3.63;;
35074;SDS011;21260;34.984;32.490;2023-07-08T00:54:54;5.43;;;3.80;;
35074;SDS011;21260;34.984;32.490;2023-07-08T00:57:25;5.68;;;3.67;;
35074;SDS011;21260;34.984;32.490;2023-07-08T01:00:02;7.22;;;3.78;;
35074;SDS011;21260;34.984;32.490;2023-07-08T01:02:58;8.65;;;4.13;;
35074;SDS011;21260;34.984;32.490;2023-07-08T01:05:25;5.30;;;3.58;;
35074;SDS011;21260;34.984;32.490;2023-07-08T01:07:56;5.37;;;3.90;;
35074;SDS011;21260;34.984;32.490;2023-07-08T01:10:30;5.30;;;3.60;;
35074;SDS011;21260;34.984;32.490;2023-07-08T01:13:08;5.70;;;3.60;;
35074;SDS011;21260;34.984;32.490;2023-07-08T01:15:41;5.55;;;3.83;;
35074;SDS011;21260;34.984;32.490;2023-07-08T01:18:12;7.28;;;3.75;;
35074;SDS011;21260;34.984;32.490;2023-07-08T01:20:42;5.75;;;3.33;;
35074;SDS011;21260;34.984;32.490;2023-07-08T01:23:09;5.95;;;3.55;;
35074;SDS011;21260;34.984;32.490;2023-07-08T01:25:37;6.20;;;3.40;;
35074;SDS011;21260;34.984;32.490;2023-07-08T01:28:03;6.28;;;3.50;;
35074;SDS011;21260;34.984;32.490;2023-07-08T01:30:30;4.40;;;3.47;;
35074;SDS011;21260;34.984;32.490;2023-07-08T01:32:59;7.22;;;3.63;;
35074;SDS011;21260;34.984;32.490;2023-07-08T01:35:32;5.20;;;3.30;;
35074;SDS011;21260;34.984;32.490;2023-07-08T01:38:00;5.67;;;3.23;;
35074;SDS011;21260;34.984;32.490;2023-07-08T01:40:34;4.85;;;3.03;;
35074;SDS011;21260;34.984;32.490;2023-07-08T01:43:04;4.10;;;3.10;;
35074;SDS011;21260;34.984;32.490;2023-07-08T01:45:32;5.10;;;3.05;;
35074;SDS011;21260;34.984;32.490;2023-07-08T01:48:14;3.97;;;3.22;;
35074;SDS011;21260;34.984;32.490;2023-07-08T01:53:33;5.97;;;3.50;;
35074;SDS011;21260;34.984;32.490;2023-07-08T01:56:03;5.78;;;3.45;;
35074;SDS011;21260;34.984;32.490;2023-07-08T01:58:31;6.10;;;3.25;;
35074;SDS011;21260;34.984;32.490;2023-07-08T02:00:58;4.68;;;3.50;;
35074;SDS011;21260;34.984;32.490;2023-07-08T02:03:25;5.32;;;3.22;;
35074;SDS011;21260;34.984;32.490;2023-07-08T02:05:52;6.88;;;3.42;;
35074;SDS011;21260;34.984;32.490;2023-07-08T02:08:19;5.07;;;3.40;;
35074;SDS011;21260;34.984;32.490;2023-07-08T02:10:49;4.63;;;3.20;;
35074;SDS011;21260;34.984;32.490;2023-07-08T02:13:20;6.45;;;3.05;;
35074;SDS011;21260;34.984;32.490;2023-07-08T02:15:48;4.97;;;3.00;;
35074;SDS011;21260;34.984;32.490;2023-07-08T02:18:15;3.80;;;3.17;;
35074;SDS011;21260;34.984;32.490;2023-07-08T02:20:44;5.35;;;3.17;;
35074;SDS011;21260;34.984;32.490;2023-07-08T02:23:11;4.03;;;2.78;;
35074;SDS011;21260;34.984;32.490;2023-07-08T02:25:39;4.93;;;3.00;;
35074;SDS011;21260;34.984;32.490;2023-07-08T02:28:05;4.25;;;2.97;;
35074;SDS011;21260;34.984;32.490;2023-07-08T02:30:31;3.90;;;2.60;;
35074;SDS011;21260;34.984;32.490;2023-07-08T02:32:58;5.00;;;2.90;;
35074;SDS011;21260;34.984;32.490;2023-07-08T02:35:28;4.63;;;2.80;;
35074;SDS011;21260;34.984;32.490;2023-07-08T02:37:56;9.33;;;3.17;;
35074;SDS011;21260;34.984;32.490;2023-07-08T02:40:23;5.07;;;2.65;;
35074;SDS011;21260;34.984;32.490;2023-07-08T02:42:51;5.30;;;2.67;;
35074;SDS011;21260;34.984;32.490;2023-07-08T02:45:18;4.97;;;2.60;;
35074;SDS011;21260;34.984;32.490;2023-07-08T02:47:44;6.45;;;3.20;;
35074;SDS011;21260;34.984;32.490;2023-07-08T02:50:11;5.80;;;2.80;;
35074;SDS011;21260;34.984;32.490;2023-07-08T02:52:38;5.45;;;2.65;;
35074;SDS011;21260;34.984;32.490;2023-07-08T02:55:05;4.32;;;2.60;;
35074;SDS011;21260;34.984;32.490;2023-07-08T02:57:32;6.18;;;2.53;;
35074;SDS011;21260;34.984;32.490;2023-07-08T02:59:58;6.55;;;2.80;;
35074;SDS011;21260;34.984;32.490;2023-07-08T03:02:24;5.60;;;2.47;;
35074;SDS011;21260;34.984;32.490;2023-07-08T03:04:51;5.45;;;2.80;;
35074;SDS011;21260;34.984;32.490;2023-07-08T03:07:19;5.47;;;2.70;;
35074;SDS011;21260;34.984;32.490;2023-07-08T03:09:45;6.30;;;2.60;;
35074;SDS011;21260;34.984;32.490;2023-07-08T03:12:11;5.82;;;2.78;;
35074;SDS011;21260;34.984;32.490;2023-07-08T03:14:38;4.03;;;2.40;;
35074;SDS011;21260;34.984;32.490;2023-07-08T03:17:04;3.92;;;2.70;;
35074;SDS011;21260;34.984;32.490;2023-07-08T03:19:31;3.28;;;2.67;;
35074;SDS011;21260;34.984;32.490;2023-07-08T03:21:57;3.70;;;2.50;;
35074;SDS011;21260;34.984;32.490;2023-07-08T03:24:24;3.75;;;2.55;;
35074;SDS011;21260;34.984;32.490;2023-07-08T03:26:50;4.10;;;3.00;;
35074;SDS011;21260;34.984;32.490;2023-07-08T03:29:19;4.43;;;2.65;;
35074;SDS011;21260;34.984;32.490;2023-07-08T03:31:46;5.40;;;2.78;;
35074;SDS011;21260;34.984;32.490;2023-07-08T03:34:13;3.95;;;2.70;;
35074;SDS011;21260;34.984;32.490;2023-07-08T03:36:48;3.83;;;2.70;;
35074;SDS011;21260;34.984;32.490;2023-07-08T03:39:17;5.03;;;2.78;;
35074;SDS011;21260;34.984;32.490;2023-07-08T03:41:49;5.35;;;2.60;;
35074;SDS011;21260;34.984;32.490;2023-07-08T03:44:16;5.22;;;2.70;;
35074;SDS011;21260;34.984;32.490;2023-07-08T03:46:44;3.15;;;2.58;;
35074;SDS011;21260;34.984;32.490;2023-07-08T03:49:13;4.38;;;2.60;;
35074;SDS011;21260;34.984;32.490;2023-07-08T03:51:39;3.80;;;2.60;;
35074;SDS011;21260;34.984;32.490;2023-07-08T03:54:11;6.72;;;2.88;;
35074;SDS011;21260;34.984;32.490;2023-07-08T03:56:40;5.07;;;2.50;;
35074;SDS011;21260;34.984;32.490;2023-07-08T03:59:07;4.13;;;2.70;;
35074;SDS011;21260;34.984;32.490;2023-07-08T04:01:33;4.57;;;2.50;;
35074;SDS011;21260;34.984;32.490;2023-07-08T04:03:59;3.90;;;2.60;;
35074;SDS011;21260;34.984;32.490;2023-07-08T04:06:26;4.47;;;2.77;;
35074;SDS011;21260;34.984;32.490;2023-07-08T04:08:56;4.88;;;2.60;;
35074;SDS011;21260;34.984;32.490;2023-07-08T04:11:23;5.03;;;2.75;;
35074;SDS011;21260;34.984;32.490;2023-07-08T04:13:49;4.18;;;2.60;;
35074;SDS011;21260;34.984;32.490;2023-07-08T04:16:20;5.63;;;2.77;;
35074;SDS011;21260;34.984;32.490;2023-07-08T04:18:53;6.03;;;2.63;;
35074;SDS011;21260;34.984;32.490;2023-07-08T04:21:21;4.03;;;2.80;;
35074;SDS011;21260;34.984;32.490;2023-07-08T04:23:52;4.78;;;2.70;;
35074;SDS011;21260;34.984;32.490;2023-07-08T04:26:18;4.40;;;2.72;;
35074;SDS011;21260;34.984;32.490;2023-07-08T04:28:45;5.10;;;2.72;;
35074;SDS011;21260;34.984;32.490;2023-07-08T04:31:12;3.95;;;2.80;;
35074;SDS011;21260;34.984;32.490;2023-07-08T04:33:38;5.17;;;2.70;;
35074;SDS011;21260;34.984;32.490;2023-07-08T04:36:05;4.60;;;2.80;;
35074;SDS011;21260;34.984;32.490;2023-07-08T04:38:39;4.53;;;2.83;;
35074;SDS011;21260;34.984;32.490;2023-07-08T04:41:07;4.28;;;2.90;;
35074;SDS011;21260;34.984;32.490;2023-07-08T04:43:33;3.90;;;2.90;;
35074;SDS011;21260;34.984;32.490;2023-07-08T04:45:59;5.18;;;3.10;;
35074;SDS011;21260;34.984;32.490;2023-07-08T04:48:26;3.55;;;2.92;;
35074;SDS011;21260;34.984;32.490;2023-07-08T04:50:52;5.20;;;3.17;;
35074;SDS011;21260;34.984;32.490;2023-07-08T04:53:19;4.38;;;3.03;;
35074;SDS011;21260;34.984;32.490;2023-07-08T04:55:48;3.92;;;2.90;;
35074;SDS011;21260;34.984;32.490;2023-07-08T04:58:20;6.35;;;3.03;;
35074;SDS011;21260;34.984;32.490;2023-07-08T05:00:47;5.15;;;3.30;;
35074;SDS011;21260;34.984;32.490;2023-07-08T05:03:13;4.68;;;3.15;;
35074;SDS011;21260;34.984;32.490;2023-07-08T05:05:39;4.60;;;3.13;;
35074;SDS011;21260;34.984;32.490;2023-07-08T05:08:06;4.63;;;3.00;;
35074;SDS011;21260;34.984;32.490;2023-07-08T05:10:34;6.90;;;3.22;;
35074;SDS011;21260;34.984;32.490;2023-07-08T05:13:00;4.32;;;3.28;;
35074;SDS011;21260;34.984;32.490;2023-07-08T05:15:26;4.25;;;3.15;;
35074;SDS011;21260;34.984;32.490;2023-07-08T05:17:53;4.50;;;3.33;;
35074;SDS011;21260;34.984;32.490;2023-07-08T05:20:19;4.43;;;3.10;;
35074;SDS011;21260;34.984;32.490;2023-07-08T05:22:46;7.45;;;3.28;;
35074;SDS011;21260;34.984;32.490;2023-07-08T05:25:12;5.05;;;3.10;;
35074;SDS011;21260;34.984;32.490;2023-07-08T05:27:39;4.40;;;3.10;;
35074;SDS011;21260;34.984;32.490;2023-07-08T05:30:06;4.32;;;3.15;;
35074;SDS011;21260;34.984;32.490;2023-07-08T05:32:39;6.00;;;3.10;;
35074;SDS011;21260;34.984;32.490;2023-07-08T05:35:06;6.45;;;3.20;;
35074;SDS011;21260;34.984;32.490;2023-07-08T05:37:33;3.20;;;2.90;;
35074;SDS011;21260;34.984;32.490;2023-07-08T05:39:59;5.07;;;3.13;;
35074;SDS011;21260;34.984;32.490;2023-07-08T05:42:29;3.97;;;3.08;;
35074;SDS011;21260;34.984;32.490;2023-07-08T05:44:55;5.70;;;3.00;;
35074;SDS011;21260;34.984;32.490;2023-07-08T05:47:21;3.97;;;3.20;;
35074;SDS011;21260;34.984;32.490;2023-07-08T05:49:48;4.22;;;2.78;;
35074;SDS011;21260;34.984;32.490;2023-07-08T05:52:14;3.97;;;3.17;;
35074;SDS011;21260;34.984;32.490;2023-07-08T05:54:41;5.43;;;3.17;;
35074;SDS011;21260;34.984;32.490;2023-07-08T05:57:09;3.70;;;3.22;;
35074;SDS011;21260;34.984;32.490;2023-07-08T05:59:36;4.93;;;3.15;;
35074;SDS011;21260;34.984;32.490;2023-07-08T06:02:08;4.80;;;3.23;;
35074;SDS011;21260;34.984;32.490;2023-07-08T06:04:37;3.70;;;2.83;;
35074;SDS011;21260;34.984;32.490;2023-07-08T06:07:05;4.25;;;3.05;;
35074;SDS011;21260;34.984;32.490;2023-07-08T06:09:31;5.78;;;3.60;;
35074;SDS011;21260;34.984;32.490;2023-07-08T06:11:58;3.58;;;3.10;;
35074;SDS011;21260;34.984;32.490;2023-07-08T06:14:24;4.30;;;2.80;;
35074;SDS011;21260;34.984;32.490;2023-07-08T06:16:51;5.63;;;3.22;;
35074;SDS011;21260;34.984;32.490;2023-07-08T06:19:19;4.15;;;3.20;;
35074;SDS011;21260;34.984;32.490;2023-07-08T06:21:46;4.55;;;3.13;;
35074;SDS011;21260;34.984;32.490;2023-07-08T06:24:12;5.47;;;3.60;;
35074;SDS011;21260;34.984;32.490;2023-07-08T06:26:39;5.75;;;3.30;;
35074;SDS011;21260;34.984;32.490;2023-07-08T06:29:05;4.20;;;3.20;;
35074;SDS011;21260;34.984;32.490;2023-07-08T06:31:31;6.32;;;3.17;;
35074;SDS011;21260;34.984;32.490;2023-07-08T06:33:58;3.60;;;2.90;;
35074;SDS011;21260;34.984;32.490;2023-07-08T06:36:26;6.03;;;3.40;;
35074;SDS011;21260;34.984;32.490;2023-07-08T06:38:52;6.15;;;3.35;;
35074;SDS011;21260;34.984;32.490;2023-07-08T06:41:18;7.35;;;3.47;;
35074;SDS011;21260;34.984;32.490;2023-07-08T06:43:44;7.00;;;3.30;;
35074;SDS011;21260;34.984;32.490;2023-07-08T06:46:11;4.28;;;3.00;;
35074;SDS011;21260;34.984;32.490;2023-07-08T06:48:37;4.88;;;3.42;;
35074;SDS011;21260;34.984;32.490;2023-07-08T06:51:04;4.93;;;3.30;;
35074;SDS011;21260;34.984;32.490;2023-07-08T06:53:30;5.22;;;3.53;;
35074;SDS011;21260;34.984;32.490;2023-07-08T06:55:56;6.32;;;3.60;;
35074;SDS011;21260;34.984;32.490;2023-07-08T06:58:27;8.43;;;3.87;;
35074;SDS011;21260;34.984;32.490;2023-07-08T07:00:54;6.45;;;3.92;;
35074;SDS011;21260;34.984;32.490;2023-07-08T07:03:20;9.52;;;4.07;;
35074;SDS011;21260;34.984;32.490;2023-07-08T07:05:47;8.63;;;3.97;;
35074;SDS011;21260;34.984;32.490;2023-07-08T07:08:13;7.00;;;3.97;;
35074;SDS011;21260;34.984;32.490;2023-07-08T07:10:39;7.93;;;3.97;;
35074;SDS011;21260;34.984;32.490;2023-07-08T07:13:09;6.00;;;3.85;;
35074;SDS011;21260;34.984;32.490;2023-07-08T07:15:35;6.63;;;3.83;;
35074;SDS011;21260;34.984;32.490;2023-07-08T07:18:01;6.83;;;4.10;;
35074;SDS011;21260;34.984;32.490;2023-07-08T07:20:28;6.80;;;4.05;;
35074;SDS011;21260;34.984;32.490;2023-07-08T07:22:55;6.80;;;3.90;;
35074;SDS011;21260;34.984;32.490;2023-07-08T07:25:21;5.50;;;3.90;;
35074;SDS011;21260;34.984;32.490;2023-07-08T07:27:48;6.78;;;4.07;;
35074;SDS011;21260;34.984;32.490;2023-07-08T07:30:14;6.85;;;4.00;;
35074;SDS011;21260;34.984;32.490;2023-07-08T07:32:44;6.30;;;3.70;;
35074;SDS011;21260;34.984;32.490;2023-07-08T07:35:11;7.43;;;4.20;;
35074;SDS011;21260;34.984;32.490;2023-07-08T07:37:42;5.78;;;4.00;;
35074;SDS011;21260;34.984;32.490;2023-07-08T07:40:11;7.10;;;4.13;;
35074;SDS011;21260;34.984;32.490;2023-07-08T07:42:40;6.93;;;4.00;;
35074;SDS011;21260;34.984;32.490;2023-07-08T07:45:09;7.50;;;4.15;;
35074;SDS011;21260;34.984;32.490;2023-07-08T07:47:37;7.18;;;3.88;;
35074;SDS011;21260;34.984;32.490;2023-07-08T07:50:05;6.93;;;4.20;;
35074;SDS011;21260;34.984;32.490;2023-07-08T07:52:33;9.87;;;4.30;;
35074;SDS011;21260;34.984;32.490;2023-07-08T07:55:00;8.68;;;4.13;;
35074;SDS011;21260;34.984;32.490;2023-07-08T07:57:28;7.53;;;4.57;;
35074;SDS011;21260;34.984;32.490;2023-07-08T07:59:54;6.55;;;4.28;;
35074;SDS011;21260;34.984;32.490;2023-07-08T08:02:20;6.97;;;4.30;;
35074;SDS011;21260;34.984;32.490;2023-07-08T08:04:47;7.67;;;4.27;;
35074;SDS011;21260;34.984;32.490;2023-07-08T08:07:13;8.27;;;4.78;;
35074;SDS011;21260;34.984;32.490;2023-07-08T08:09:39;9.73;;;4.50;;
35074;SDS011;21260;34.984;32.490;2023-07-08T08:12:07;7.85;;;4.70;;
35074;SDS011;21260;34.984;32.490;2023-07-08T08:14:35;9.15;;;4.80;;
35074;SDS011;21260;34.984;32.490;2023-07-08T08:17:02;7.07;;;4.70;;
35074;SDS011;21260;34.984;32.490;2023-07-08T08:19:29;12.75;;;4.93;;
35074;SDS011;21260;34.984;32.490;2023-07-08T08:21:56;8.82;;;5.03;;
35074;SDS011;21260;34.984;32.490;2023-07-08T08:24:22;10.73;;;5.53;;
35074;SDS011;21260;34.984;32.490;2023-07-08T08:26:49;10.13;;;5.32;;
35074;SDS011;21260;34.984;32.490;2023-07-08T08:29:15;8.27;;;5.32;;
35074;SDS011;21260;34.984;32.490;2023-07-08T08:31:41;10.27;;;5.57;;
35074;SDS011;21260;34.984;32.490;2023-07-08T08:34:07;9.57;;;5.47;;
35074;SDS011;21260;34.984;32.490;2023-07-08T08:36:33;9.30;;;5.70;;
35074;SDS011;21260;34.984;32.490;2023-07-08T08:39:00;10.43;;;5.63;;
35074;SDS011;21260;34.984;32.490;2023-07-08T08:41:32;9.57;;;5.45;;
35074;SDS011;21260;34.984;32.490;2023-07-08T08:44:02;13.20;;;6.00;;
35074;SDS011;21260;34.984;32.490;2023-07-08T08:46:34;11.20;;;6.50;;
35074;SDS011;21260;34.984;32.490;2023-07-08T08:51:52;13.77;;;6.32;;
35074;SDS011;21260;34.984;32.490;2023-07-08T08:54:20;12.93;;;6.35;;
35074;SDS011;21260;34.984;32.490;2023-07-08T09:00:06;10.82;;;6.25;;
35074;SDS011;21260;34.984;32.490;2023-07-08T09:05:34;10.23;;;6.32;;
35074;SDS011;21260;34.984;32.490;2023-07-08T09:10:47;13.05;;;6.38;;
35074;SDS011;21260;34.984;32.490;2023-07-08T09:13:28;9.85;;;6.30;;
35074;SDS011;21260;34.984;32.490;2023-07-08T09:21:56;12.45;;;6.45;;
35074;SDS011;21260;34.984;32.490;2023-07-08T09:24:53;13.25;;;6.25;;
35074;SDS011;21260;34.984;32.490;2023-07-08T09:27:28;10.53;;;6.00;;
35074;SDS011;21260;34.984;32.490;2023-07-08T09:29:55;15.57;;;6.53;;
35074;SDS011;21260;34.984;32.490;2023-07-08T09:32:22;12.00;;;5.97;;
35074;SDS011;21260;34.984;32.490;2023-07-08T09:34:53;10.70;;;6.25;;
35074;SDS011;21260;34.984;32.490;2023-07-08T09:37:47;12.45;;;6.18;;
35074;SDS011;21260;34.984;32.490;2023-07-08T09:43:01;11.27;;;6.40;;
35074;SDS011;21260;34.984;32.490;2023-07-08T09:45:49;12.77;;;6.25;;
35074;SDS011;21260;34.984;32.490;2023-07-08T09:48:26;11.60;;;5.70;;
35074;SDS011;21260;34.984;32.490;2023-07-08T09:50:57;12.00;;;5.93;;
35074;SDS011;21260;34.984;32.490;2023-07-08T09:53:25;9.57;;;5.63;;
35074;SDS011;21260;34.984;32.490;2023-07-08T09:55:53;12.18;;;6.30;;
35074;SDS011;21260;34.984;32.490;2023-07-08T10:00:58;12.40;;;6.03;;
35074;SDS011;21260;34.984;32.490;2023-07-08T10:03:36;12.70;;;5.65;;
35074;SDS011;21260;34.984;32.490;2023-07-08T10:06:05;12.60;;;5.93;;
35074;SDS011;21260;34.984;32.490;2023-07-08T10:08:43;10.48;;;5.90;;
35074;SDS011;21260;34.984;32.490;2023-07-08T10:13:54;10.40;;;5.15;;
35074;SDS011;21260;34.984;32.490;2023-07-08T10:16:55;13.50;;;5.35;;
35074;SDS011;21260;34.984;32.490;2023-07-08T10:19:22;9.38;;;4.93;;
35074;SDS011;21260;34.984;32.490;2023-07-08T10:27:40;10.07;;;5.25;;
35074;SDS011;21260;34.984;32.490;2023-07-08T10:30:21;11.32;;;5.45;;
35074;SDS011;21260;34.984;32.490;2023-07-08T10:39:19;10.40;;;5.18;;
35074;SDS011;21260;34.984;32.490;2023-07-08T10:53:49;7.97;;;4.45;;
35074;SDS011;21260;34.984;32.490;2023-07-08T10:57:24;9.88;;;5.05;;
35074;SDS011;21260;34.984;32.490;2023-07-08T11:00:11;12.27;;;4.88;;
35074;SDS011;21260;34.984;32.490;2023-07-08T11:06:12;7.63;;;4.47;;
35074;SDS011;21260;34.984;32.490;2023-07-08T11:08:53;8.67;;;4.83;;
35074;SDS011;21260;34.984;32.490;2023-07-08T11:14:14;9.05;;;5.00;;
35074;SDS011;21260;34.984;32.490;2023-07-08T11:19:38;7.90;;;4.68;;
35074;SDS011;21260;34.984;32.490;2023-07-08T11:22:11;7.50;;;4.45;;
35074;SDS011;21260;34.984;32.490;2023-07-08T11:24:44;10.10;;;4.65;;
35074;SDS011;21260;34.984;32.490;2023-07-08T11:32:39;8.18;;;5.00;;
35074;SDS011;21260;34.984;32.490;2023-07-08T11:35:32;12.63;;;4.80;;
35074;SDS011;21260;34.984;32.490;2023-07-08T11:38:13;8.98;;;4.97;;
35074;SDS011;21260;34.984;32.490;2023-07-08T11:43:45;10.98;;;5.40;;
35074;SDS011;21260;34.984;32.490;2023-07-08T11:46:32;10.43;;;5.10;;
35074;SDS011;21260;34.984;32.490;2023-07-08T11:49:04;10.50;;;4.70;;
35074;SDS011;21260;34.984;32.490;2023-07-08T11:51:38;10.43;;;5.05;;
35074;SDS011;21260;34.984;32.490;2023-07-08T11:54:13;11.85;;;5.05;;
35074;SDS011;21260;34.984;32.490;2023-07-08T11:56:58;9.52;;;4.90;;
35074;SDS011;21260;34.984;32.490;2023-07-08T11:59:31;8.77;;;4.82;;
35074;SDS011;21260;34.984;32.490;2023-07-08T12:02:12;11.23;;;5.63;;
35074;SDS011;21260;34.984;32.490;2023-07-08T12:07:41;12.18;;;4.60;;
35074;SDS011;21260;34.984;32.490;2023-07-08T12:10:40;8.52;;;4.38;;
35074;SDS011;21260;34.984;32.490;2023-07-08T12:13:15;9.93;;;4.50;;
35074;SDS011;21260;34.984;32.490;2023-07-08T12:15:48;8.60;;;4.77;;
35074;SDS011;21260;34.984;32.490;2023-07-08T12:18:15;8.88;;;4.25;;
35074;SDS011;21260;34.984;32.490;2023-07-08T12:20:58;10.15;;;4.95;;
35074;SDS011;21260;34.984;32.490;2023-07-08T12:23:28;7.57;;;4.23;;
35074;SDS011;21260;34.984;32.490;2023-07-08T12:25:56;7.03;;;4.30;;
35074;SDS011;21260;34.984;32.490;2023-07-08T12:28:23;8.73;;;4.00;;
35074;SDS011;21260;34.984;32.490;2023-07-08T12:30:51;7.73;;;4.13;;
35074;SDS011;21260;34.984;32.490;2023-07-08T12:33:31;7.10;;;3.95;;
35074;SDS011;21260;34.984;32.490;2023-07-08T12:36:00;7.30;;;4.10;;
35074;SDS011;21260;34.984;32.490;2023-07-08T12:38:35;8.70;;;3.70;;
35074;SDS011;21260;34.984;32.490;2023-07-08T12:41:08;7.35;;;3.75;;
35074;SDS011;21260;34.984;32.490;2023-07-08T12:43:48;7.47;;;3.42;;
35074;SDS011;21260;34.984;32.490;2023-07-08T12:46:16;9.95;;;4.20;;
35074;SDS011;21260;34.984;32.490;2023-07-08T12:48:45;8.13;;;3.88;;
35074;SDS011;21260;34.984;32.490;2023-07-08T12:51:13;8.13;;;4.50;;
35074;SDS011;21260;34.984;32.490;2023-07-08T12:53:46;7.70;;;3.75;;
35074;SDS011;21260;34.984;32.490;2023-07-08T12:56:13;7.60;;;4.00;;
35074;SDS011;21260;34.984;32.490;2023-07-08T12:58:41;7.13;;;4.30;;
35074;SDS011;21260;34.984;32.490;2023-07-08T13:01:22;8.98;;;4.50;;
35074;SDS011;21260;34.984;32.490;2023-07-08T13:03:58;11.52;;;4.50;;
35074;SDS011;21260;34.984;32.490;2023-07-08T13:06:30;7.57;;;4.35;;
35074;SDS011;21260;34.984;32.490;2023-07-08T13:09:02;10.32;;;4.28;;
35074;SDS011;21260;34.984;32.490;2023-07-08T13:12:23;8.65;;;4.18;;
35074;SDS011;21260;34.984;32.490;2023-07-08T13:14:50;7.25;;;4.18;;
35074;SDS011;21260;34.984;32.490;2023-07-08T13:17:20;7.55;;;4.10;;
35074;SDS011;21260;34.984;32.490;2023-07-08T13:19:47;9.33;;;4.40;;
35074;SDS011;21260;34.984;32.490;2023-07-08T13:22:15;7.78;;;4.32;;
35074;SDS011;21260;34.984;32.490;2023-07-08T13:24:47;9.20;;;4.28;;
35074;SDS011;21260;34.984;32.490;2023-07-08T13:27:24;7.68;;;4.20;;
35074;SDS011;21260;34.984;32.490;2023-07-08T13:29:52;9.02;;;4.30;;
35074;SDS011;21260;34.984;32.490;2023-07-08T13:32:40;7.22;;;4.07;;
35074;SDS011;21260;34.984;32.490;2023-07-08T13:35:20;8.35;;;4.43;;
35074;SDS011;21260;34.984;32.490;2023-07-08T13:37:52;9.73;;;4.60;;
35074;SDS011;21260;34.984;32.490;2023-07-08T13:40:20;9.23;;;4.53;;
35074;SDS011;21260;34.984;32.490;2023-07-08T13:42:50;8.47;;;4.40;;
35074;SDS011;21260;34.984;32.490;2023-07-08T13:45:25;14.13;;;5.20;;
35074;SDS011;21260;34.984;32.490;2023-07-08T13:50:40;6.97;;;4.60;;
35074;SDS011;21260;34.984;32.490;2023-07-08T13:53:22;6.38;;;4.32;;
35074;SDS011;21260;34.984;32.490;2023-07-08T13:56:15;6.53;;;4.70;;
35074;SDS011;21260;34.984;32.490;2023-07-08T13:58:51;10.23;;;4.90;;
35074;SDS011;21260;34.984;32.490;2023-07-08T14:01:27;6.00;;;4.50;;
35074;SDS011;21260;34.984;32.490;2023-07-08T14:03:56;8.73;;;4.70;;
35074;SDS011;21260;34.984;32.490;2023-07-08T14:06:37;8.60;;;4.60;;
35074;SDS011;21260;34.984;32.490;2023-07-08T14:11:43;9.77;;;4.80;;
35074;SDS011;21260;34.984;32.490;2023-07-08T14:14:12;9.40;;;4.68;;
35074;SDS011;21260;34.984;32.490;2023-07-08T14:16:40;9.67;;;4.77;;
35074;SDS011;21260;34.984;32.490;2023-07-08T14:19:26;9.48;;;4.63;;
35074;SDS011;21260;34.984;32.490;2023-07-08T14:21:58;8.13;;;4.53;;
35074;SDS011;21260;34.984;32.490;2023-07-08T14:24:38;9.40;;;5.13;;
35074;SDS011;21260;34.984;32.490;2023-07-08T14:27:08;8.88;;;4.50;;
35074;SDS011;21260;34.984;32.490;2023-07-08T14:29:40;7.03;;;4.72;;
35074;SDS011;21260;34.984;32.490;2023-07-08T14:32:14;9.88;;;4.60;;
35074;SDS011;21260;34.984;32.490;2023-07-08T14:34:56;8.73;;;4.40;;
35074;SDS011;21260;34.984;32.490;2023-07-08T14:37:38;9.17;;;4.50;;
35074;SDS011;21260;34.984;32.490;2023-07-08T14:43:13;12.82;;;4.88;;
35074;SDS011;21260;34.984;32.490;2023-07-08T14:45:54;11.48;;;5.35;;
35074;SDS011;21260;34.984;32.490;2023-07-08T14:48:24;11.55;;;5.40;;
35074;SDS011;21260;34.984;32.490;2023-07-08T14:50:54;9.10;;;5.05;;
35074;SDS011;21260;34.984;32.490;2023-07-08T14:53:20;9.03;;;4.97;;
35074;SDS011;21260;34.984;32.490;2023-07-08T14:55:48;7.97;;;4.80;;
35074;SDS011;21260;34.984;32.490;2023-07-08T14:58:26;10.60;;;5.25;;
35074;SDS011;21260;34.984;32.490;2023-07-08T15:00:59;11.25;;;5.18;;
35074;SDS011;21260;34.984;32.490;2023-07-08T15:03:33;10.40;;;4.90;;
35074;SDS011;21260;34.984;32.490;2023-07-08T15:05:59;8.73;;;5.00;;
35074;SDS011;21260;34.984;32.490;2023-07-08T15:08:26;8.85;;;4.88;;
35074;SDS011;21260;34.984;32.490;2023-07-08T15:10:52;8.77;;;5.00;;
35074;SDS011;21260;34.984;32.490;2023-07-08T15:13:19;10.55;;;5.00;;
35074;SDS011;21260;34.984;32.490;2023-07-08T15:15:52;8.57;;;4.73;;
35074;SDS011;21260;34.984;32.490;2023-07-08T15:18:18;8.30;;;4.57;;
35074;SDS011;21260;34.984;32.490;2023-07-08T15:20:45;8.00;;;4.80;;
35074;SDS011;21260;34.984;32.490;2023-07-08T15:23:11;8.32;;;4.75;;
35074;SDS011;21260;34.984;32.490;2023-07-08T15:25:42;7.53;;;4.60;;
35074;SDS011;21260;34.984;32.490;2023-07-08T15:28:46;8.60;;;4.68;;
35074;SDS011;21260;34.984;32.490;2023-07-08T15:31:14;13.18;;;5.10;;
35074;SDS011;21260;34.984;32.490;2023-07-08T15:33:45;10.07;;;5.20;;
35074;SDS011;21260;34.984;32.490;2023-07-08T15:36:12;9.65;;;5.07;;
35074;SDS011;21260;34.984;32.490;2023-07-08T15:38:39;9.18;;;5.40;;
35074;SDS011;21260;34.984;32.490;2023-07-08T15:41:16;10.30;;;5.38;;
35074;SDS011;21260;34.984;32.490;2023-07-08T15:43:48;11.10;;;5.70;;
35074;SDS011;21260;34.984;32.490;2023-07-08T15:46:18;14.60;;;5.88;;
35074;SDS011;21260;34.984;32.490;2023-07-08T15:48:44;10.23;;;5.40;;
35074;SDS011;21260;34.984;32.490;2023-07-08T15:51:14;10.65;;;5.40;;
35074;SDS011;21260;34.984;32.490;2023-07-08T15:53:43;10.73;;;5.10;;
35074;SDS011;21260;34.984;32.490;2023-07-08T15:56:10;11.80;;;5.75;;
35074;SDS011;21260;34.984;32.490;2023-07-08T15:58:42;11.98;;;5.70;;
35074;SDS011;21260;34.984;32.490;2023-07-08T16:01:15;14.25;;;5.40;;
35074;SDS011;21260;34.984;32.490;2023-07-08T16:03:46;19.30;;;5.90;;
35074;SDS011;21260;34.984;32.490;2023-07-08T16:06:14;13.23;;;5.78;;
35074;SDS011;21260;34.984;32.490;2023-07-08T16:08:41;12.43;;;6.47;;
35074;SDS011;21260;34.984;32.490;2023-07-08T16:11:11;14.50;;;6.18;;
35074;SDS011;21260;34.984;32.490;2023-07-08T16:13:48;13.85;;;6.53;;
35074;SDS011;21260;34.984;32.490;2023-07-08T16:16:14;16.15;;;6.95;;
35074;SDS011;21260;34.984;32.490;2023-07-08T16:18:41;13.93;;;7.00;;